Marla Bay, Nevada
Current Conditions -  °F | °C
As of 7:53 PM on Friday 28 Nov 2014 (Local Time) from KTVL Reporting Station
Clear Clear  
Wind Chill: 43°   Ceiling: Unl
Heat Index: 49°   Visibility: 10mi
Dew Point:   Wind: 17mph
Humidity: 16%   Direction: 200°SSW
Pressure: 29.89"   Gusts: 33mph
Location:  39.0164°N, 119.925°W
Report Text: KTVL 290353Z AUTO 20015G29KT 10SM CLR 09/M16 A2989 RMK AO2 PK WND 19030/0342 SLP083 T00941156
Loading
Personal Weather Stations






























Interactive Weather Map New forecast layout! Learn more

10-Day Weather Forecast

Advertisements
Track Severe Weather on mobile